sensor_id;sensor_type;location;lat;lon;timestamp;pressure;altitude;pressure_sealevel;temperature;humidity
9774;BME280;4926;42.670;23.316;2023-07-08T00:00:39;94847.53;;;20.54;99.58
9774;BME280;4926;42.670;23.316;2023-07-08T00:03:07;94844.38;;;20.52;99.38
9774;BME280;4926;42.670;23.316;2023-07-08T00:05:34;94834.72;;;20.51;100.00
9774;BME280;4926;42.670;23.316;2023-07-08T00:08:02;94839.91;;;20.44;99.95
9774;BME280;4926;42.670;23.316;2023-07-08T00:10:29;94830.88;;;20.40;100.00
9774;BME280;4926;42.670;23.316;2023-07-08T00:12:57;94827.97;;;20.33;100.00
9774;BME280;4926;42.670;23.316;2023-07-08T00:15:26;94819.75;;;20.30;100.00
9774;BME280;4926;42.670;23.316;2023-07-08T00:17:54;94825.50;;;20.28;100.00
9774;BME280;4926;42.670;23.316;2023-07-08T00:20:32;94820.00;;;20.25;100.00
9774;BME280;4926;42.670;23.316;2023-07-08T00:22:59;94818.78;;;20.22;100.00
9774;BME280;4926;42.670;23.316;2023-07-08T00:25:29;94820.22;;;20.20;100.00
9774;BME280;4926;42.670;23.316;2023-07-08T00:27:58;94814.72;;;20.16;100.00
9774;BME280;4926;42.670;23.316;2023-07-08T00:30:31;94821.88;;;20.12;100.00
9774;BME280;4926;42.670;23.316;2023-07-08T00:32:59;94814.22;;;20.14;100.00
9774;BME280;4926;42.670;23.316;2023-07-08T00:35:30;94810.72;;;20.14;100.00
9774;BME280;4926;42.670;23.316;2023-07-08T00:37:58;94806.47;;;20.00;100.00
9774;BME280;4926;42.670;23.316;2023-07-08T00:40:28;94814.59;;;20.00;100.00
9774;BME280;4926;42.670;23.316;2023-07-08T00:42:56;94807.06;;;19.94;100.00
9774;BME280;4926;42.670;23.316;2023-07-08T00:45:32;94808.63;;;19.95;100.00
9774;BME280;4926;42.670;23.316;2023-07-08T00:48:06;94794.66;;;19.93;100.00
9774;BME280;4926;42.670;23.316;2023-07-08T00:50:39;94788.25;;;19.85;100.00
9774;BME280;4926;42.670;23.316;2023-07-08T00:53:25;94788.81;;;19.79;100.00
9774;BME280;4926;42.670;23.316;2023-07-08T00:55:54;94790.50;;;19.83;100.00
9774;BME280;4926;42.670;23.316;2023-07-08T00:58:22;94791.16;;;19.80;100.00
9774;BME280;4926;42.670;23.316;2023-07-08T01:00:51;94785.00;;;19.80;100.00
9774;BME280;4926;42.670;23.316;2023-07-08T01:03:20;94785.53;;;19.73;100.00
9774;BME280;4926;42.670;23.316;2023-07-08T01:05:49;94791.50;;;19.79;100.00
9774;BME280;4926;42.670;23.316;2023-07-08T01:08:17;94789.94;;;19.78;100.00
9774;BME280;4926;42.670;23.316;2023-07-08T01:10:49;94790.50;;;19.83;100.00
9774;BME280;4926;42.670;23.316;2023-07-08T01:13:18;94778.91;;;19.83;100.00
9774;BME280;4926;42.670;23.316;2023-07-08T01:15:46;94776.66;;;19.85;100.00
9774;BME280;4926;42.670;23.316;2023-07-08T01:18:16;94792.53;;;19.86;100.00
9774;BME280;4926;42.670;23.316;2023-07-08T01:20:46;94784.09;;;19.76;100.00
9774;BME280;4926;42.670;23.316;2023-07-08T01:23:15;94787.03;;;19.71;100.00
9774;BME280;4926;42.670;23.316;2023-07-08T01:25:43;94787.72;;;19.68;100.00
9774;BME280;4926;42.670;23.316;2023-07-08T01:28:11;94779.25;;;19.69;100.00
9774;BME280;4926;42.670;23.316;2023-07-08T01:30:40;94776.44;;;19.66;100.00
9774;BME280;4926;42.670;23.316;2023-07-08T01:33:18;94771.59;;;19.71;100.00
9774;BME280;4926;42.670;23.316;2023-07-08T01:35:47;94773.50;;;19.71;100.00
9774;BME280;4926;42.670;23.316;2023-07-08T01:38:24;94778.91;;;19.59;100.00
9774;BME280;4926;42.670;23.316;2023-07-08T01:40:53;94777.34;;;19.58;100.00
9774;BME280;4926;42.670;23.316;2023-07-08T01:43:22;94774.19;;;19.56;100.00
9774;BME280;4926;42.670;23.316;2023-07-08T01:45:51;94763.28;;;19.64;100.00
9774;BME280;4926;42.670;23.316;2023-07-08T01:48:22;94759.69;;;19.60;100.00
9774;BME280;4926;42.670;23.316;2023-07-08T01:50:54;94758.19;;;19.63;100.00
9774;BME280;4926;42.670;23.316;2023-07-08T01:53:32;94759.56;;;19.57;100.00
9774;BME280;4926;42.670;23.316;2023-07-08T01:56:00;94750.09;;;19.51;100.00
9774;BME280;4926;42.670;23.316;2023-07-08T01:58:27;94755.50;;;19.51;100.00
9774;BME280;4926;42.670;23.316;2023-07-08T02:00:54;94754.38;;;19.52;100.00
9774;BME280;4926;42.670;23.316;2023-07-08T02:03:23;94750.09;;;19.51;100.00
9774;BME280;4926;42.670;23.316;2023-07-08T02:05:52;94757.97;;;19.56;100.00
9774;BME280;4926;42.670;23.316;2023-07-08T02:08:19;94749.22;;;19.47;100.00
9774;BME280;4926;42.670;23.316;2023-07-08T02:10:52;94758.75;;;19.56;100.00
9774;BME280;4926;42.670;23.316;2023-07-08T02:13:19;94761.81;;;19.55;100.00
9774;BME280;4926;42.670;23.316;2023-07-08T02:15:47;94767.31;;;19.58;100.00
9774;BME280;4926;42.670;23.316;2023-07-08T02:18:14;94768.88;;;19.59;100.00
9774;BME280;4926;42.670;23.316;2023-07-08T02:20:44;94774.19;;;19.56;100.00
9774;BME280;4926;42.670;23.316;2023-07-08T02:23:11;94778.25;;;19.50;100.00
9774;BME280;4926;42.670;23.316;2023-07-08T02:25:51;94780.13;;;19.49;100.00
9774;BME280;4926;42.670;23.316;2023-07-08T02:28:18;94777.66;;;19.44;100.00
9774;BME280;4926;42.670;23.316;2023-07-08T02:30:45;94778.59;;;19.48;100.00
9774;BME280;4926;42.670;23.316;2023-07-08T02:33:12;94790.59;;;19.51;100.00
9774;BME280;4926;42.670;23.316;2023-07-08T02:35:40;94795.66;;;19.40;100.00
9774;BME280;4926;42.670;23.316;2023-07-08T02:38:07;94800.75;;;19.42;100.00
9774;BME280;4926;42.670;23.316;2023-07-08T02:40:33;94804.56;;;19.41;100.00
9774;BME280;4926;42.670;23.316;2023-07-08T02:43:01;94797.59;;;19.40;100.00
9774;BME280;4926;42.670;23.316;2023-07-08T02:45:28;94802.53;;;19.38;100.00
9774;BME280;4926;42.670;23.316;2023-07-08T02:47:58;94800.94;;;19.37;100.00
9774;BME280;4926;42.670;23.316;2023-07-08T02:50:24;94806.78;;;19.39;100.00
9774;BME280;4926;42.670;23.316;2023-07-08T02:52:51;94811.09;;;19.40;100.00
9774;BME280;4926;42.670;23.316;2023-07-08T02:55:18;94827.28;;;19.40;100.00
9774;BME280;4926;42.670;23.316;2023-07-08T02:57:47;94819.84;;;19.37;100.00
9774;BME280;4926;42.670;23.316;2023-07-08T03:00:15;94823.56;;;19.44;100.00
9774;BME280;4926;42.670;23.316;2023-07-08T03:02:42;94813.66;;;19.36;100.00
9774;BME280;4926;42.670;23.316;2023-07-08T03:05:11;94816.50;;;19.40;100.00
9774;BME280;4926;42.670;23.316;2023-07-08T03:07:37;94823.00;;;19.39;100.00
9774;BME280;4926;42.670;23.316;2023-07-08T03:10:05;94818.84;;;19.41;100.00
9774;BME280;4926;42.670;23.316;2023-07-08T03:12:31;94816.94;;;19.42;100.00
9774;BME280;4926;42.670;23.316;2023-07-08T03:14:58;94810.50;;;19.34;100.00
9774;BME280;4926;42.670;23.316;2023-07-08T03:17:26;94824.03;;;19.46;100.00
9774;BME280;4926;42.670;23.316;2023-07-08T03:19:53;94816.50;;;19.40;100.00
9774;BME280;4926;42.670;23.316;2023-07-08T03:22:19;94814.56;;;19.40;100.00
9774;BME280;4926;42.670;23.316;2023-07-08T03:24:49;94807.59;;;19.39;100.00
9774;BME280;4926;42.670;23.316;2023-07-08T03:27:16;94819.19;;;19.40;100.00
9774;BME280;4926;42.670;23.316;2023-07-08T03:29:42;94810.88;;;19.45;100.00
9774;BME280;4926;42.670;23.316;2023-07-08T03:32:10;94814.38;;;19.45;100.00
9774;BME280;4926;42.670;23.316;2023-07-08T03:34:39;94810.06;;;19.44;100.00
9774;BME280;4926;42.670;23.316;2023-07-08T03:37:09;94815.00;;;19.42;100.00
9774;BME280;4926;42.670;23.316;2023-07-08T03:39:36;94821.09;;;19.39;100.00
9774;BME280;4926;42.670;23.316;2023-07-08T03:42:07;94807.03;;;19.46;100.00
9774;BME280;4926;42.670;23.316;2023-07-08T03:44:34;94807.81;;;19.46;100.00
9774;BME280;4926;42.670;23.316;2023-07-08T03:47:01;94814.78;;;19.47;100.00
9774;BME280;4926;42.670;23.316;2023-07-08T03:49:27;94807.94;;;19.50;100.00
9774;BME280;4926;42.670;23.316;2023-07-08T03:51:56;94809.84;;;19.61;100.00
9774;BME280;4926;42.670;23.316;2023-07-08T03:54:24;94812.78;;;19.56;100.00
9774;BME280;4926;42.670;23.316;2023-07-08T03:56:54;94815.47;;;19.56;100.00
9774;BME280;4926;42.670;23.316;2023-07-08T03:59:21;94798.28;;;19.61;100.00
9774;BME280;4926;42.670;23.316;2023-07-08T04:01:47;94797.72;;;19.67;100.00
9774;BME280;4926;42.670;23.316;2023-07-08T04:04:15;94797.03;;;19.70;100.00
9774;BME280;4926;42.670;23.316;2023-07-08T04:06:42;94804.91;;;19.63;100.00
9774;BME280;4926;42.670;23.316;2023-07-08T04:09:12;94801.19;;;19.56;100.00
9774;BME280;4926;42.670;23.316;2023-07-08T04:11:39;94814.25;;;19.54;100.00
9774;BME280;4926;42.670;23.316;2023-07-08T04:14:08;94807.50;;;19.60;100.00
9774;BME280;4926;42.670;23.316;2023-07-08T04:16:43;94810.53;;;19.58;100.00
9774;BME280;4926;42.670;23.316;2023-07-08T04:19:11;94816.97;;;19.54;100.00
9774;BME280;4926;42.670;23.316;2023-07-08T04:21:39;94814.50;;;19.61;100.00
9774;BME280;4926;42.670;23.316;2023-07-08T04:24:10;94809.53;;;19.75;100.00
9774;BME280;4926;42.670;23.316;2023-07-08T04:26:39;94809.53;;;19.87;100.00
9774;BME280;4926;42.670;23.316;2023-07-08T04:29:11;94819.53;;;19.98;100.00
9774;BME280;4926;42.670;23.316;2023-07-08T04:31:48;94807.91;;;20.10;100.00
9774;BME280;4926;42.670;23.316;2023-07-08T04:34:15;94826.94;;;20.14;100.00
9774;BME280;4926;42.670;23.316;2023-07-08T04:36:45;94825.75;;;20.23;100.00
9774;BME280;4926;42.670;23.316;2023-07-08T04:39:12;94833.97;;;20.27;100.00
9774;BME280;4926;42.670;23.316;2023-07-08T04:41:41;94835.09;;;20.26;100.00
9774;BME280;4926;42.670;23.316;2023-07-08T04:44:09;94842.63;;;20.32;100.00
9774;BME280;4926;42.670;23.316;2023-07-08T04:46:39;94837.69;;;20.34;100.00
9774;BME280;4926;42.670;23.316;2023-07-08T04:49:07;94819.31;;;20.28;100.00
9774;BME280;4926;42.670;23.316;2023-07-08T04:51:35;94825.06;;;20.26;100.00
9774;BME280;4926;42.670;23.316;2023-07-08T04:54:02;94827.88;;;20.30;100.00
9774;BME280;4926;42.670;23.316;2023-07-08T04:56:36;94840.63;;;20.29;100.00
9774;BME280;4926;42.670;23.316;2023-07-08T04:59:07;94836.34;;;20.16;100.00
9774;BME280;4926;42.670;23.316;2023-07-08T05:01:35;94845.09;;;20.13;100.00
9774;BME280;4926;42.670;23.316;2023-07-08T05:04:04;94843.97;;;20.14;100.00
9774;BME280;4926;42.670;23.316;2023-07-08T05:06:32;94843.53;;;20.24;100.00
9774;BME280;4926;42.670;23.316;2023-07-08T05:08:59;94853.91;;;20.34;100.00
9774;BME280;4926;42.670;23.316;2023-07-08T05:11:26;94851.97;;;20.47;100.00
9774;BME280;4926;42.670;23.316;2023-07-08T05:13:53;94850.84;;;20.36;99.67
9774;BME280;4926;42.670;23.316;2023-07-08T05:16:21;94852.53;;;20.40;99.22
9774;BME280;4926;42.670;23.316;2023-07-08T05:18:48;94841.59;;;20.37;99.22
9774;BME280;4926;42.670;23.316;2023-07-08T05:21:15;94846.91;;;20.33;99.20
9774;BME280;4926;42.670;23.316;2023-07-08T05:23:44;94845.41;;;20.48;99.69
9774;BME280;4926;42.670;23.316;2023-07-08T05:26:11;94855.41;;;20.59;98.51
9774;BME280;4926;42.670;23.316;2023-07-08T05:28:38;94855.38;;;20.71;95.99
9774;BME280;4926;42.670;23.316;2023-07-08T05:31:05;94865.81;;;20.57;96.95
9774;BME280;4926;42.670;23.316;2023-07-08T05:33:33;94865.56;;;20.62;97.67
9774;BME280;4926;42.670;23.316;2023-07-08T05:36:01;94845.91;;;20.77;95.06
9774;BME280;4926;42.670;23.316;2023-07-08T05:38:28;94850.34;;;20.97;93.54
9774;BME280;4926;42.670;23.316;2023-07-08T05:40:58;94846.97;;;21.00;94.03
9774;BME280;4926;42.670;23.316;2023-07-08T05:43:25;94847.81;;;21.17;91.94
9774;BME280;4926;42.670;23.316;2023-07-08T05:45:58;94855.50;;;21.15;90.88
9774;BME280;4926;42.670;23.316;2023-07-08T05:48:25;94868.69;;;21.16;90.33
9774;BME280;4926;42.670;23.316;2023-07-08T05:50:54;94855.25;;;21.20;88.52
9774;BME280;4926;42.670;23.316;2023-07-08T05:53:21;94869.41;;;21.29;88.55
9774;BME280;4926;42.670;23.316;2023-07-08T05:55:51;94869.34;;;21.41;87.72
9774;BME280;4926;42.670;23.316;2023-07-08T05:58:20;94872.69;;;21.50;86.58
9774;BME280;4926;42.670;23.316;2023-07-08T06:00:47;94868.94;;;21.54;87.00
9774;BME280;4926;42.670;23.316;2023-07-08T06:03:16;94877.59;;;21.60;86.61
9774;BME280;4926;42.670;23.316;2023-07-08T06:05:42;94878.75;;;21.59;86.78
9774;BME280;4926;42.670;23.316;2023-07-08T06:08:10;94879.16;;;21.61;87.13
9774;BME280;4926;42.670;23.316;2023-07-08T06:10:41;94887.13;;;21.69;86.31
9774;BME280;4926;42.670;23.316;2023-07-08T06:13:08;94884.09;;;21.71;86.05
9774;BME280;4926;42.670;23.316;2023-07-08T06:15:35;94883.91;;;21.64;86.16
9774;BME280;4926;42.670;23.316;2023-07-08T06:18:01;94887.72;;;21.63;85.83
9774;BME280;4926;42.670;23.316;2023-07-08T06:20:29;94885.97;;;21.55;85.77
9774;BME280;4926;42.670;23.316;2023-07-08T06:22:55;94895.13;;;21.50;86.27
9774;BME280;4926;42.670;23.316;2023-07-08T06:25:23;94892.84;;;21.37;85.66
9774;BME280;4926;42.670;23.316;2023-07-08T06:27:50;94896.94;;;21.31;85.97
9774;BME280;4926;42.670;23.316;2023-07-08T06:30:17;94906.44;;;21.25;86.42
9774;BME280;4926;42.670;23.316;2023-07-08T06:32:49;94894.13;;;21.27;86.50
9774;BME280;4926;42.670;23.316;2023-07-08T06:35:16;94889.53;;;21.16;86.01
9774;BME280;4926;42.670;23.316;2023-07-08T06:37:46;94892.78;;;21.21;86.13
9774;BME280;4926;42.670;23.316;2023-07-08T06:40:13;94894.03;;;21.24;85.47
9774;BME280;4926;42.670;23.316;2023-07-08T06:42:41;94889.34;;;21.36;85.73
9774;BME280;4926;42.670;23.316;2023-07-08T06:45:10;94893.31;;;21.54;85.68
9774;BME280;4926;42.670;23.316;2023-07-08T06:47:37;94881.44;;;21.59;84.02
9774;BME280;4926;42.670;23.316;2023-07-08T06:50:07;94880.38;;;21.48;82.98
9774;BME280;4926;42.670;23.316;2023-07-08T06:52:34;94890.41;;;21.47;83.33
9774;BME280;4926;42.670;23.316;2023-07-08T06:55:03;94886.78;;;21.55;82.47
9774;BME280;4926;42.670;23.316;2023-07-08T06:57:30;94890.44;;;21.63;82.03
9774;BME280;4926;42.670;23.316;2023-07-08T07:00:00;94885.66;;;21.72;81.62
9774;BME280;4926;42.670;23.316;2023-07-08T07:02:28;94878.00;;;21.89;78.50
9774;BME280;4926;42.670;23.316;2023-07-08T07:05:00;94882.28;;;22.06;76.98
9774;BME280;4926;42.670;23.316;2023-07-08T07:07:27;94872.97;;;22.23;75.91
9774;BME280;4926;42.670;23.316;2023-07-08T07:09:54;94879.69;;;22.44;74.36
9774;BME280;4926;42.670;23.316;2023-07-08T07:12:24;94872.84;;;22.85;71.66
9774;BME280;4926;42.670;23.316;2023-07-08T07:14:51;94865.22;;;22.90;71.22
9774;BME280;4926;42.670;23.316;2023-07-08T07:17:24;94873.78;;;22.92;70.18
9774;BME280;4926;42.670;23.316;2023-07-08T07:19:52;94881.22;;;22.95;70.57
9774;BME280;4926;42.670;23.316;2023-07-08T07:22:22;94885.75;;;23.07;71.09
9774;BME280;4926;42.670;23.316;2023-07-08T07:24:51;94893.97;;;23.10;71.37
9774;BME280;4926;42.670;23.316;2023-07-08T07:29:47;94887.25;;;23.43;69.00
9774;BME280;4926;42.670;23.316;2023-07-08T07:32:15;94898.25;;;23.50;69.32
9774;BME280;4926;42.670;23.316;2023-07-08T07:34:48;94893.53;;;23.47;69.73
9774;BME280;4926;42.670;23.316;2023-07-08T07:37:17;94906.97;;;23.59;70.15
9774;BME280;4926;42.670;23.316;2023-07-08T07:39:49;94900.44;;;23.41;68.28
9774;BME280;4926;42.670;23.316;2023-07-08T07:42:19;94910.03;;;23.19;69.56
9774;BME280;4926;42.670;23.316;2023-07-08T07:44:51;94912.25;;;23.13;69.39
9774;BME280;4926;42.670;23.316;2023-07-08T07:47:17;94899.63;;;23.02;68.74
9774;BME280;4926;42.670;23.316;2023-07-08T07:49:48;94905.63;;;22.76;69.75
9774;BME280;4926;42.670;23.316;2023-07-08T07:52:15;94922.03;;;22.64;71.31
9774;BME280;4926;42.670;23.316;2023-07-08T07:54:47;94913.94;;;22.83;70.38
9774;BME280;4926;42.670;23.316;2023-07-08T07:57:16;94898.53;;;23.06;69.74
9774;BME280;4926;42.670;23.316;2023-07-08T07:59:49;94906.97;;;23.20;69.16
9774;BME280;4926;42.670;23.316;2023-07-08T08:02:16;94907.13;;;23.08;68.62
9774;BME280;4926;42.670;23.316;2023-07-08T08:04:42;94909.59;;;22.98;67.99
9774;BME280;4926;42.670;23.316;2023-07-08T08:07:13;94910.94;;;22.88;68.61
9774;BME280;4926;42.670;23.316;2023-07-08T08:09:40;94903.06;;;22.83;69.70
9774;BME280;4926;42.670;23.316;2023-07-08T08:12:08;94903.78;;;22.80;69.61
9774;BME280;4926;42.670;23.316;2023-07-08T08:14:36;94913.25;;;22.86;70.38
9774;BME280;4926;42.670;23.316;2023-07-08T08:17:05;94917.97;;;22.89;69.78
9774;BME280;4926;42.670;23.316;2023-07-08T08:19:32;94921.03;;;22.88;70.18
9774;BME280;4926;42.670;23.316;2023-07-08T08:22:01;94906.25;;;23.04;68.70
9774;BME280;4926;42.670;23.316;2023-07-08T08:24:30;94905.25;;;23.12;68.78
9774;BME280;4926;42.670;23.316;2023-07-08T08:26:57;94909.19;;;23.15;68.62
9774;BME280;4926;42.670;23.316;2023-07-08T08:29:25;94905.44;;;23.39;68.71
9774;BME280;4926;42.670;23.316;2023-07-08T08:31:52;94897.56;;;23.53;67.68
9774;BME280;4926;42.670;23.316;2023-07-08T08:34:19;94897.91;;;23.93;67.15
9774;BME280;4926;42.670;23.316;2023-07-08T08:36:48;94898.88;;;24.04;65.62
9774;BME280;4926;42.670;23.316;2023-07-08T08:39:20;94882.22;;;24.05;64.50
9774;BME280;4926;42.670;23.316;2023-07-08T08:41:49;94881.00;;;24.03;64.55
9774;BME280;4926;42.670;23.316;2023-07-08T08:44:24;94881.59;;;24.15;65.21
9774;BME280;4926;42.670;23.316;2023-07-08T08:46:57;94880.94;;;24.48;63.91
9774;BME280;4926;42.670;23.316;2023-07-08T08:49:32;94871.59;;;24.72;62.91
9774;BME280;4926;42.670;23.316;2023-07-08T08:52:02;94861.88;;;25.04;61.14
9774;BME280;4926;42.670;23.316;2023-07-08T08:54:29;94870.81;;;25.34;60.84
9774;BME280;4926;42.670;23.316;2023-07-08T08:57:01;94862.00;;;25.44;58.89
9774;BME280;4926;42.670;23.316;2023-07-08T08:59:37;94850.13;;;25.63;58.97
9774;BME280;4926;42.670;23.316;2023-07-08T09:02:23;94854.19;;;25.79;58.09
9774;BME280;4926;42.670;23.316;2023-07-08T09:04:52;94858.81;;;25.75;58.42
9774;BME280;4926;42.670;23.316;2023-07-08T09:07:20;94841.41;;;25.87;58.29
9774;BME280;4926;42.670;23.316;2023-07-08T09:09:55;94840.34;;;26.02;57.80
9774;BME280;4926;42.670;23.316;2023-07-08T09:12:33;94844.47;;;26.25;55.92
9774;BME280;4926;42.670;23.316;2023-07-08T09:15:13;94834.69;;;26.21;55.25
9774;BME280;4926;42.670;23.316;2023-07-08T09:17:40;94844.94;;;25.91;55.83
9774;BME280;4926;42.670;23.316;2023-07-08T09:20:17;94851.06;;;25.81;56.83
9774;BME280;4926;42.670;23.316;2023-07-08T09:22:51;94834.19;;;26.05;56.10
9774;BME280;4926;42.670;23.316;2023-07-08T09:25:24;94829.81;;;26.00;55.21
9774;BME280;4926;42.670;23.316;2023-07-08T09:27:53;94837.03;;;25.79;55.86
9774;BME280;4926;42.670;23.316;2023-07-08T09:30:22;94838.00;;;26.00;55.33
9774;BME280;4926;42.670;23.316;2023-07-08T09:32:50;94829.13;;;26.07;55.48
9774;BME280;4926;42.670;23.316;2023-07-08T09:35:18;94827.38;;;26.32;54.80
9774;BME280;4926;42.670;23.316;2023-07-08T09:37:46;94819.03;;;26.11;54.40
9774;BME280;4926;42.670;23.316;2023-07-08T09:40:16;94812.38;;;26.05;54.42
9774;BME280;4926;42.670;23.316;2023-07-08T09:42:46;94822.75;;;26.39;54.49
9774;BME280;4926;42.670;23.316;2023-07-08T09:45:19;94811.44;;;26.41;53.70
9774;BME280;4926;42.670;23.316;2023-07-08T09:47:46;94814.13;;;26.34;54.03
9774;BME280;4926;42.670;23.316;2023-07-08T09:50:19;94801.94;;;26.21;54.32
9774;BME280;4926;42.670;23.316;2023-07-08T09:52:51;94810.22;;;26.35;54.10
9774;BME280;4926;42.670;23.316;2023-07-08T09:55:19;94793.50;;;26.47;53.20
9774;BME280;4926;42.670;23.316;2023-07-08T09:57:50;94803.50;;;26.83;52.87
9774;BME280;4926;42.670;23.316;2023-07-08T10:00:27;94802.00;;;27.00;52.64
9774;BME280;4926;42.670;23.316;2023-07-08T10:03:00;94802.56;;;27.40;52.75
9774;BME280;4926;42.670;23.316;2023-07-08T10:05:37;94777.22;;;27.82;50.74
9774;BME280;4926;42.670;23.316;2023-07-08T10:08:18;94764.72;;;27.64;50.49
9774;BME280;4926;42.670;23.316;2023-07-08T10:10:47;94774.88;;;27.77;50.84
9774;BME280;4926;42.670;23.316;2023-07-08T10:13:19;94778.78;;;27.73;50.37
9774;BME280;4926;42.670;23.316;2023-07-08T10:15:51;94772.53;;;27.72;50.47
9774;BME280;4926;42.670;23.316;2023-07-08T10:18:24;94780.38;;;28.02;50.16
9774;BME280;4926;42.670;23.316;2023-07-08T10:20:57;94767.06;;;28.35;49.74
9774;BME280;4926;42.670;23.316;2023-07-08T10:23:42;94764.69;;;28.55;49.19
9774;BME280;4926;42.670;23.316;2023-07-08T10:26:16;94757.59;;;28.68;48.71
9774;BME280;4926;42.670;23.316;2023-07-08T10:28:54;94749.84;;;28.17;48.41
9774;BME280;4926;42.670;23.316;2023-07-08T10:31:31;94747.09;;;27.75;49.11
9774;BME280;4926;42.670;23.316;2023-07-08T10:34:14;94753.00;;;27.95;49.58
9774;BME280;4926;42.670;23.316;2023-07-08T10:36:49;94758.47;;;28.23;48.58
9774;BME280;4926;42.670;23.316;2023-07-08T10:39:52;94749.41;;;28.47;47.93
9774;BME280;4926;42.670;23.316;2023-07-08T10:42:32;94736.56;;;28.23;47.85
9774;BME280;4926;42.670;23.316;2023-07-08T10:45:09;94732.56;;;28.55;47.26
9774;BME280;4926;42.670;23.316;2023-07-08T10:47:50;94731.34;;;28.78;46.73
9774;BME280;4926;42.670;23.316;2023-07-08T10:50:30;94722.00;;;28.47;46.36
9774;BME280;4926;42.670;23.316;2023-07-08T10:53:17;94716.88;;;28.70;46.37
9774;BME280;4926;42.670;23.316;2023-07-08T10:55:54;94719.66;;;28.60;47.11
9774;BME280;4926;42.670;23.316;2023-07-08T10:58:44;94716.88;;;28.70;46.53
9774;BME280;4926;42.670;23.316;2023-07-08T11:01:24;94718.34;;;28.92;46.89
9774;BME280;4926;42.670;23.316;2023-07-08T11:04:11;94717.50;;;29.02;46.02
9774;BME280;4926;42.670;23.316;2023-07-08T11:06:47;94718.28;;;28.99;46.40
9774;BME280;4926;42.670;23.316;2023-07-08T11:09:19;94721.53;;;28.77;46.42
9774;BME280;4926;42.670;23.316;2023-07-08T11:11:52;94726.94;;;28.94;46.00
9774;BME280;4926;42.670;23.316;2023-07-08T11:14:26;94723.56;;;28.62;46.20
9774;BME280;4926;42.670;23.316;2023-07-08T11:16:58;94705.19;;;28.55;45.99
9774;BME280;4926;42.670;23.316;2023-07-08T11:19:36;94711.41;;;28.70;46.30
9774;BME280;4926;42.670;23.316;2023-07-08T11:22:08;94686.69;;;28.81;44.53
9774;BME280;4926;42.670;23.316;2023-07-08T11:24:38;94691.03;;;28.68;45.03
9774;BME280;4926;42.670;23.316;2023-07-08T11:27:13;94695.78;;;28.60;45.03
9774;BME280;4926;42.670;23.316;2023-07-08T11:29:48;94684.00;;;28.70;45.82
9774;BME280;4926;42.670;23.316;2023-07-08T11:32:19;94693.88;;;28.32;45.88
9774;BME280;4926;42.670;23.316;2023-07-08T11:34:53;94690.34;;;28.35;45.80
9774;BME280;4926;42.670;23.316;2023-07-08T11:37:22;94692.34;;;28.28;45.59
9774;BME280;4926;42.670;23.316;2023-07-08T11:39:55;94696.56;;;28.50;46.01
9774;BME280;4926;42.670;23.316;2023-07-08T11:42:29;94697.34;;;28.54;46.24
9774;BME280;4926;42.670;23.316;2023-07-08T11:44:59;94690.25;;;28.74;45.72
9774;BME280;4926;42.670;23.316;2023-07-08T11:47:38;94680.78;;;28.82;45.06
9774;BME280;4926;42.670;23.316;2023-07-08T11:50:14;94685.44;;;28.92;44.14
9774;BME280;4926;42.670;23.316;2023-07-08T11:52:51;94686.94;;;29.07;44.12
9774;BME280;4926;42.670;23.316;2023-07-08T11:55:23;94661.59;;;28.82;43.99
9774;BME280;4926;42.670;23.316;2023-07-08T11:57:54;94688.66;;;28.73;44.47
9774;BME280;4926;42.670;23.316;2023-07-08T12:00:24;94687.91;;;28.69;44.82
9774;BME280;4926;42.670;23.316;2023-07-08T12:02:54;94689.09;;;28.68;44.71
9774;BME280;4926;42.670;23.316;2023-07-08T12:05:36;94680.06;;;28.68;44.17
9774;BME280;4926;42.670;23.316;2023-07-08T12:08:12;94692.06;;;28.98;44.13
9774;BME280;4926;42.670;23.316;2023-07-08T12:10:47;94681.66;;;29.37;43.43
9774;BME280;4926;42.670;23.316;2023-07-08T12:13:18;94672.34;;;29.79;42.40
9774;BME280;4926;42.670;23.316;2023-07-08T12:15:44;94672.97;;;29.94;42.14
9774;BME280;4926;42.670;23.316;2023-07-08T12:18:14;94676.16;;;29.89;42.37
9774;BME280;4926;42.670;23.316;2023-07-08T12:20:46;94670.81;;;29.75;42.21
9774;BME280;4926;42.670;23.316;2023-07-08T12:23:18;94678.81;;;29.99;42.38
9774;BME280;4926;42.670;23.316;2023-07-08T12:25:46;94679.34;;;29.32;42.90
9774;BME280;4926;42.670;23.316;2023-07-08T12:28:14;94691.00;;;28.78;43.74
9774;BME280;4926;42.670;23.316;2023-07-08T12:30:42;94689.63;;;28.14;44.70
9774;BME280;4926;42.670;23.316;2023-07-08T12:33:12;94688.09;;;27.85;45.50
9774;BME280;4926;42.670;23.316;2023-07-08T12:35:41;94695.91;;;27.83;45.39
9774;BME280;4926;42.670;23.316;2023-07-08T12:38:17;94688.09;;;27.53;45.60
9774;BME280;4926;42.670;23.316;2023-07-08T12:40:44;94684.13;;;27.26;46.61
9774;BME280;4926;42.670;23.316;2023-07-08T12:43:11;94691.22;;;27.30;46.41
9774;BME280;4926;42.670;23.316;2023-07-08T12:45:38;94686.91;;;27.58;46.10
9774;BME280;4926;42.670;23.316;2023-07-08T12:48:05;94691.16;;;27.16;47.01
9774;BME280;4926;42.670;23.316;2023-07-08T12:50:32;94692.72;;;27.14;47.64
9774;BME280;4926;42.670;23.316;2023-07-08T12:52:59;94683.38;;;27.29;47.31
9774;BME280;4926;42.670;23.316;2023-07-08T12:55:42;94695.13;;;27.65;46.87
9774;BME280;4926;42.670;23.316;2023-07-08T12:58:13;94694.34;;;28.03;46.25
9774;BME280;4926;42.670;23.316;2023-07-08T13:00:44;94692.69;;;28.37;46.07
9774;BME280;4926;42.670;23.316;2023-07-08T13:03:16;94683.97;;;28.77;45.59
9774;BME280;4926;42.670;23.316;2023-07-08T13:05:47;94685.97;;;29.38;45.10
9774;BME280;4926;42.670;23.316;2023-07-08T13:08:18;94670.44;;;29.65;44.07
9774;BME280;4926;42.670;23.316;2023-07-08T13:10:51;94668.06;;;29.75;43.15
9774;BME280;4926;42.670;23.316;2023-07-08T13:13:23;94663.13;;;29.52;43.00
9774;BME280;4926;42.670;23.316;2023-07-08T13:15:51;94670.41;;;29.25;44.41
9774;BME280;4926;42.670;23.316;2023-07-08T13:18:22;94669.41;;;29.52;43.58
9774;BME280;4926;42.670;23.316;2023-07-08T13:20:52;94671.63;;;29.72;42.97
9774;BME280;4926;42.670;23.316;2023-07-08T13:23:19;94673.47;;;29.82;43.09
9774;BME280;4926;42.670;23.316;2023-07-08T13:25:50;94660.03;;;29.46;42.83